createdAt,value
2022-11-12T00:00:12.269Z,0
2022-11-12T00:01:12.270Z,0
2022-11-12T00:02:12.015Z,0
2022-11-12T00:03:12.557Z,0
2022-11-12T00:04:13.044Z,0
2022-11-12T00:05:13.056Z,0
2022-11-12T00:06:12.013Z,0
2022-11-12T00:07:12.075Z,0
2022-11-12T00:08:12.621Z,0
2022-11-12T00:09:12.373Z,0
2022-11-12T00:10:12.045Z,0
2022-11-12T00:11:12.222Z,0
2022-11-12T00:12:11.917Z,0
2022-11-12T00:13:12.311Z,0
2022-11-12T00:14:12.060Z,0
2022-11-12T00:15:12.081Z,0
2022-11-12T00:16:13.000Z,0
2022-11-12T00:17:12.089Z,0
2022-11-12T00:18:12.284Z,0
2022-11-12T00:19:11.933Z,0
2022-11-12T00:20:13.121Z,0
2022-11-12T00:21:12.740Z,0
2022-11-12T00:22:12.071Z,0
2022-11-12T00:23:12.377Z,0
2022-11-12T00:24:13.244Z,0
2022-11-12T00:25:12.581Z,0
2022-11-12T00:26:11.890Z,0
2022-11-12T00:27:13.292Z,0
2022-11-12T00:28:11.948Z,0
2022-11-12T00:29:12.175Z,0
2022-11-12T00:30:11.953Z,0
2022-11-12T00:31:11.939Z,0
2022-11-12T00:32:11.943Z,0
2022-11-12T00:33:11.929Z,0
2022-11-12T00:34:11.994Z,0
2022-11-12T00:35:18.885Z,0
2022-11-12T00:36:12.744Z,0
2022-11-12T00:37:12.240Z,0
2022-11-12T00:38:12.086Z,0
2022-11-12T00:39:12.356Z,0
2022-11-12T00:40:12.158Z,0
2022-11-12T00:41:12.300Z,0
2022-11-12T00:42:12.078Z,0
2022-11-12T00:43:13.479Z,0
2022-11-12T00:44:12.304Z,0
2022-11-12T00:45:12.367Z,0
2022-11-12T00:46:12.041Z,0
2022-11-12T00:47:13.213Z,0
2022-11-12T00:48:12.037Z,0
2022-11-12T00:49:12.350Z,0
2022-11-12T00:50:12.072Z,0
2022-11-12T00:51:13.291Z,0
2022-11-12T00:52:13.561Z,0
2022-11-12T00:53:12.645Z,0
2022-11-12T00:54:12.467Z,0
2022-11-12T00:55:12.742Z,0
2022-11-12T00:56:12.910Z,0
2022-11-12T00:57:12.296Z,0
2022-11-12T00:58:13.192Z,0
2022-11-12T00:59:15.962Z,0
2022-11-12T01:00:12.711Z,0
2022-11-12T01:01:14.037Z,0
2022-11-12T01:02:12.235Z,0
2022-11-12T01:03:12.576Z,0
2022-11-12T01:04:12.431Z,0
2022-11-12T01:05:12.259Z,0
2022-11-12T01:06:12.267Z,0
2022-11-12T01:07:13.090Z,0
2022-11-12T01:08:13.022Z,0
2022-11-12T01:09:12.791Z,0
2022-11-12T01:10:12.266Z,0
2022-11-12T01:11:13.939Z,0
2022-11-12T06:01:01.649Z,8
2022-11-12T06:01:44.314Z,12
2022-11-12T06:02:43.301Z,8
2022-11-12T06:03:42.930Z,12
2022-11-12T06:04:43.467Z,12
2022-11-12T06:05:42.690Z,16
2022-11-12T06:06:43.534Z,20
2022-11-12T06:07:43.227Z,24
2022-11-12T06:08:42.804Z,28
2022-11-12T06:09:43.522Z,32
2022-11-12T06:10:42.671Z,36
2022-11-12T06:11:43.718Z,44
2022-11-12T06:12:43.419Z,48
2022-11-12T06:13:42.807Z,56
2022-11-12T06:14:43.074Z,60
2022-11-12T06:15:46.664Z,68
2022-11-12T06:16:43.260Z,76
2022-11-12T06:17:43.943Z,84
2022-11-12T06:18:42.968Z,92
2022-11-12T06:19:44.098Z,100
2022-11-12T06:20:43.862Z,112
2022-11-12T06:21:43.626Z,128
2022-11-12T06:22:42.734Z,140
2022-11-12T06:23:43.299Z,152
2022-11-12T06:24:43.442Z,164
2022-11-12T06:25:43.093Z,180
2022-11-12T06:26:43.233Z,192
2022-11-12T06:27:42.783Z,208
2022-11-12T06:28:43.119Z,224
2022-11-12T06:29:42.922Z,248
2022-11-12T06:30:43.428Z,268
2022-11-12T06:31:43.119Z,292
2022-11-12T06:32:43.684Z,312
2022-11-12T06:33:44.268Z,336
2022-11-12T06:34:43.063Z,364
2022-11-12T06:35:49.224Z,388
2022-11-12T06:36:42.923Z,412
2022-11-12T06:37:43.524Z,436
2022-11-12T06:38:43.988Z,464
2022-11-12T06:39:43.149Z,488
2022-11-12T06:40:42.954Z,516
2022-11-12T06:41:42.842Z,540
2022-11-12T06:42:43.459Z,564
2022-11-12T06:43:43.335Z,584
2022-11-12T06:44:43.563Z,608
2022-11-12T06:45:42.932Z,628
2022-11-12T06:46:43.345Z,652
2022-11-12T06:47:43.539Z,680
2022-11-12T06:48:43.119Z,712
2022-11-12T06:49:44.113Z,740
2022-11-12T06:50:43.603Z,772
2022-11-12T06:51:43.301Z,800
2022-11-12T06:52:43.458Z,832
2022-11-12T06:53:43.482Z,860
2022-11-12T06:54:43.303Z,884
2022-11-12T06:55:43.640Z,908
2022-11-12T06:56:43.647Z,932
2022-11-12T06:57:44.090Z,956
2022-11-12T06:58:43.530Z,976
2022-11-12T06:59:43.074Z,1000
2022-11-12T07:00:43.268Z,1016
2022-11-12T07:01:44.447Z,1036
2022-11-12T07:02:43.504Z,1048
2022-11-12T07:03:43.049Z,1072
2022-11-12T07:04:43.682Z,1092
2022-11-12T07:05:44.238Z,1120
2022-11-12T07:06:43.261Z,1140
2022-11-12T07:07:43.325Z,1164
2022-11-12T07:08:43.407Z,1184
2022-11-12T07:09:43.404Z,1200
2022-11-12T07:10:43.086Z,1224
2022-11-12T07:11:47.192Z,1244
2022-11-12T07:12:43.651Z,1268
2022-11-12T07:13:43.080Z,1288
2022-11-12T07:14:43.247Z,1312
2022-11-12T07:15:43.104Z,1340
2022-11-12T07:16:43.085Z,1364
2022-11-12T07:17:43.793Z,1388
2022-11-12T07:18:43.162Z,1416
2022-11-12T07:19:43.304Z,1444
2022-11-12T07:20:43.125Z,1476
2022-11-12T07:21:44.873Z,1516
2022-11-12T07:22:43.164Z,1552
2022-11-12T07:23:43.536Z,1592
2022-11-12T07:24:43.127Z,1628
2022-11-12T07:25:43.680Z,1668
2022-11-12T07:26:50.194Z,1696
2022-11-12T07:27:43.812Z,1712
2022-11-12T07:28:43.648Z,1724
2022-11-12T07:29:55.495Z,1740
2022-11-12T07:30:43.160Z,1752
2022-11-12T07:31:43.621Z,1764
2022-11-12T07:32:56.462Z,1788
2022-11-12T07:33:43.904Z,1800
2022-11-12T07:34:43.427Z,1820
2022-11-12T07:35:43.654Z,1836
2022-11-12T07:36:43.386Z,1848
2022-11-12T07:37:44.477Z,1864
2022-11-12T07:38:43.104Z,1888
2022-11-12T07:39:43.253Z,1912
2022-11-12T07:40:43.139Z,1928
2022-11-12T07:41:43.152Z,1948
2022-11-12T07:42:44.112Z,1960
2022-11-12T07:43:44.455Z,1980
2022-11-12T07:44:43.395Z,1988
2022-11-12T07:45:43.312Z,1996
2022-11-12T07:46:43.468Z,2000
2022-11-12T07:47:43.838Z,2008
2022-11-12T07:48:43.272Z,2024
2022-11-12T07:49:43.414Z,2044
2022-11-12T07:50:43.297Z,2056
2022-11-12T07:51:43.619Z,2072
2022-11-12T07:52:43.406Z,2084
2022-11-12T07:53:44.369Z,2104
2022-11-12T07:54:43.289Z,2124
2022-11-12T07:55:43.274Z,2152
2022-11-12T07:56:43.224Z,2160
2022-11-12T07:57:43.228Z,2160
2022-11-12T07:58:43.253Z,2172
2022-11-12T07:59:51.055Z,2188
2022-11-12T08:00:43.500Z,2216
2022-11-12T08:01:44.026Z,2244
2022-11-12T08:02:43.528Z,2260
2022-11-12T08:03:43.612Z,2272
2022-11-12T08:04:43.294Z,2284
2022-11-12T08:05:43.527Z,2304
2022-11-12T08:06:44.164Z,2320
2022-11-12T08:07:44.376Z,2332
2022-11-12T08:08:43.682Z,2344
2022-11-12T08:09:44.440Z,2364
2022-11-12T08:10:43.319Z,2380
2022-11-12T08:11:43.537Z,2400
2022-11-12T08:12:43.361Z,2412
2022-11-12T08:13:43.432Z,2428
2022-11-12T08:14:43.596Z,2444
2022-11-12T08:15:46.823Z,2460
2022-11-12T08:16:43.861Z,2472
2022-11-12T08:17:43.374Z,2488
2022-11-12T08:18:44.150Z,2496
2022-11-12T08:19:43.975Z,2508
2022-11-12T08:20:43.418Z,2516
2022-11-12T08:21:43.469Z,2540
2022-11-12T08:22:50.093Z,2564
2022-11-12T08:23:44.165Z,2588
2022-11-12T08:24:43.772Z,2604
2022-11-12T08:25:44.668Z,2616
2022-11-12T08:26:43.716Z,2636
2022-11-12T08:27:44.078Z,2688
2022-11-12T08:28:43.737Z,2728
2022-11-12T08:30:43.755Z,2792
2022-11-12T08:31:43.774Z,2824
2022-11-12T08:32:43.969Z,2852
2022-11-12T08:33:45.337Z,2856
2022-11-12T08:34:43.928Z,2844
2022-11-12T08:35:43.497Z,2832
2022-11-12T08:36:44.526Z,2804
2022-11-12T08:37:43.843Z,2788
2022-11-12T08:38:44.031Z,2780
2022-11-12T08:39:43.847Z,2792
2022-11-12T08:40:44.362Z,2832
2022-11-12T08:41:44.867Z,2884
2022-11-12T08:42:43.906Z,2928
2022-11-12T08:43:43.587Z,2972
2022-11-12T08:44:43.599Z,3000
2022-11-12T08:45:43.917Z,3024
2022-11-12T08:46:43.748Z,3048
2022-11-12T08:47:44.101Z,3068
2022-11-12T08:48:44.388Z,3084
2022-11-12T08:49:50.784Z,3096
2022-11-12T08:50:43.876Z,3104
2022-11-12T08:51:44.130Z,3120
2022-11-12T08:52:44.130Z,3152
2022-11-12T08:53:43.889Z,3200
2022-11-12T08:54:43.925Z,3244
2022-11-12T08:55:44.156Z,3300
2022-11-12T08:56:44.566Z,3340
2022-11-12T08:57:44.799Z,3380
2022-11-12T08:58:44.270Z,3408
2022-11-12T08:59:43.945Z,3448
2022-11-12T09:00:44.282Z,3496
2022-11-12T09:01:44.248Z,3548
2022-11-12T09:02:44.220Z,3596
2022-11-12T09:03:44.384Z,3648
2022-11-12T09:04:44.405Z,3692
2022-11-12T09:05:44.100Z,3728
2022-11-12T09:06:44.314Z,3744
2022-11-12T09:07:57.174Z,3712
2022-11-12T09:08:44.180Z,3648
2022-11-12T09:09:44.134Z,3588
2022-11-12T09:10:44.115Z,3596
2022-11-12T09:11:44.288Z,3656
2022-11-12T09:12:44.240Z,3740
2022-11-12T09:13:45.617Z,3820
2022-11-12T09:14:44.383Z,3864
2022-11-12T09:15:45.908Z,3904
2022-11-12T09:16:44.346Z,3976
2022-11-12T09:17:44.232Z,4060
2022-11-12T09:18:44.515Z,4104
2022-11-12T09:19:49.776Z,4124
2022-11-12T09:20:44.166Z,4120
2022-11-12T09:21:44.428Z,4092
2022-11-12T09:22:43.929Z,4048
2022-11-12T09:23:43.983Z,4016
2022-11-12T09:24:44.195Z,3992
2022-11-12T09:25:44.481Z,3972
2022-11-12T09:26:44.266Z,3960
2022-11-12T09:27:51.288Z,3940
2022-11-12T09:28:44.080Z,3932
2022-11-12T09:29:45.131Z,3948
2022-11-12T09:30:44.287Z,3980
2022-11-12T09:31:44.273Z,4024
2022-11-12T09:32:44.829Z,4072
2022-11-12T09:33:44.095Z,4132
2022-11-12T09:34:44.842Z,4192
2022-11-12T09:35:44.804Z,4256
2022-11-12T09:36:47.086Z,4320
2022-11-12T09:37:45.370Z,4380
2022-11-12T09:38:44.872Z,4444
2022-11-12T09:39:44.631Z,4508
2022-11-12T09:40:44.112Z,4560
2022-11-12T09:41:44.565Z,4612
2022-11-12T09:42:44.976Z,4656
2022-11-12T09:43:44.687Z,4696
2022-11-12T09:44:44.549Z,4744
2022-11-12T09:46:48.133Z,4872
2022-11-12T09:47:47.919Z,4948
2022-11-12T09:48:48.206Z,5036
2022-11-12T09:49:48.167Z,5116
2022-11-12T09:50:48.472Z,5188
2022-11-12T09:51:47.996Z,5244
2022-11-12T09:52:48.435Z,5284
2022-11-12T09:53:51.591Z,5316
2022-11-12T09:54:48.477Z,5340
2022-11-12T09:55:48.472Z,5360
2022-11-12T09:56:48.712Z,5380
2022-11-12T09:57:48.243Z,5404
2022-11-12T09:58:48.624Z,5428
2022-11-12T09:59:48.519Z,5452
2022-11-12T10:00:52.565Z,5468
2022-11-12T10:01:48.559Z,5476
2022-11-12T10:02:48.290Z,5492
2022-11-12T10:03:48.846Z,5500
2022-11-12T10:04:48.063Z,5524
2022-11-12T10:05:48.438Z,5560
2022-11-12T10:06:48.900Z,5608
2022-11-12T10:07:48.359Z,5668
2022-11-12T10:08:48.664Z,5720
2022-11-12T10:09:48.421Z,5764
2022-11-12T10:10:48.402Z,5784
2022-11-12T10:11:48.675Z,5800
2022-11-12T10:12:49.060Z,5800
2022-11-12T10:13:48.707Z,5796
2022-11-12T10:14:49.068Z,5804
2022-11-12T10:15:48.236Z,5820
2022-11-12T10:16:49.366Z,5856
2022-11-12T10:17:48.480Z,5904
2022-11-12T10:18:48.528Z,5952
2022-11-12T10:19:48.511Z,5992
2022-11-12T10:20:48.254Z,6024
2022-11-12T10:21:48.533Z,6040
2022-11-12T10:22:48.563Z,6056
2022-11-12T10:23:48.619Z,6052
2022-11-12T10:24:48.560Z,6048
2022-11-12T10:25:49.100Z,6032
2022-11-12T10:26:48.680Z,6020
2022-11-12T10:27:49.160Z,6016
2022-11-12T10:28:49.349Z,6012
2022-11-12T10:29:48.941Z,6024
2022-11-12T10:30:49.049Z,6036
2022-11-12T10:31:49.207Z,6048
2022-11-12T10:32:49.611Z,6060
2022-11-12T10:33:48.941Z,6056
2022-11-12T10:34:49.241Z,6060
2022-11-12T10:35:48.794Z,6048
2022-11-12T10:36:48.975Z,6028
2022-11-12T10:37:49.343Z,5992
2022-11-12T10:38:48.849Z,5948
2022-11-12T10:39:48.855Z,5896
2022-11-12T10:40:48.838Z,5852
2022-11-12T10:41:48.571Z,5812
2022-11-12T10:42:48.878Z,5792
2022-11-12T10:43:49.127Z,5784
2022-11-12T10:44:48.612Z,5788
2022-11-12T10:45:48.888Z,5792
2022-11-12T10:46:48.758Z,5768
2022-11-12T10:47:48.926Z,5732
2022-11-12T10:48:50.056Z,5700
2022-11-12T10:49:48.723Z,5664
2022-11-12T10:50:49.131Z,5628
2022-11-12T10:51:48.802Z,5624
2022-11-12T10:52:48.830Z,5656
2022-11-12T10:53:48.893Z,5720
2022-11-12T10:54:56.052Z,5768
2022-11-12T10:55:49.075Z,5788
2022-11-12T10:56:54.895Z,5820
2022-11-12T10:57:49.312Z,5872
2022-11-12T10:58:49.577Z,5940
2022-11-12T10:59:49.347Z,6016
2022-11-12T11:00:49.485Z,6108
2022-11-12T11:01:52.763Z,6212
2022-11-12T11:02:49.295Z,6284
2022-11-12T11:03:49.747Z,6340
2022-11-12T11:04:50.095Z,6372
2022-11-12T11:05:49.169Z,6384
2022-11-12T11:06:49.600Z,6372
2022-11-12T11:07:49.192Z,6352
2022-11-12T11:08:49.234Z,6328
2022-11-12T11:09:48.961Z,6300
2022-11-12T11:10:49.018Z,6268
2022-11-12T11:11:49.205Z,6248
2022-11-12T11:12:49.176Z,6220
2022-11-12T11:13:55.515Z,6200
2022-11-12T11:14:49.411Z,6184
2022-11-12T11:15:49.313Z,6164
2022-11-12T11:16:49.718Z,6156
2022-11-12T11:17:49.333Z,6164
2022-11-12T11:18:49.412Z,6180
2022-11-12T11:19:49.879Z,6208
2022-11-12T11:20:50.258Z,6260
2022-11-12T11:21:51.561Z,6368
2022-11-12T11:22:49.333Z,6464
2022-11-12T11:23:49.252Z,6520
2022-11-12T11:24:49.457Z,6492
2022-11-12T11:25:49.190Z,6448
2022-11-12T11:26:49.205Z,6412
2022-11-12T11:27:50.222Z,6340
2022-11-12T11:28:49.777Z,6212
2022-11-12T11:29:49.570Z,6084
2022-11-12T11:30:49.592Z,5972
2022-11-12T11:31:49.539Z,5900
2022-11-12T11:32:49.551Z,5840
2022-11-12T11:33:49.928Z,5788
2022-11-12T11:34:49.883Z,5728
2022-11-12T11:35:49.338Z,5688
2022-11-12T11:36:50.527Z,5652
2022-11-12T11:37:52.301Z,5620
2022-11-12T11:38:49.641Z,5592
2022-11-12T11:39:49.660Z,5572
2022-11-12T11:40:50.055Z,5560
2022-11-12T11:41:49.682Z,5560
2022-11-12T11:42:49.702Z,5560
2022-11-12T11:43:50.521Z,5552
2022-11-12T11:44:50.286Z,5532
2022-11-12T11:45:49.486Z,5512
2022-11-12T11:46:50.310Z,5480
2022-11-12T11:48:08.080Z,5460
2022-11-12T11:48:50.002Z,5444
2022-11-12T11:49:50.027Z,5364
2022-11-12T11:50:50.432Z,5304
2022-11-12T11:51:49.813Z,5268
2022-11-12T11:52:50.758Z,5256
2022-11-12T11:53:50.644Z,5248
2022-11-12T11:54:49.660Z,5240
2022-11-12T11:55:49.996Z,5236
2022-11-12T11:56:49.716Z,5160
2022-11-12T11:57:49.831Z,5100
2022-11-12T11:58:49.888Z,5060
2022-11-12T11:59:49.873Z,5036
2022-11-12T12:00:50.249Z,5008
2022-11-12T12:01:49.962Z,4984
2022-11-12T12:02:50.507Z,4956
2022-11-12T12:03:50.765Z,4960
2022-11-12T12:04:50.081Z,4952
2022-11-12T12:05:51.515Z,4944
2022-11-12T12:06:50.441Z,4928
2022-11-12T12:07:49.830Z,4908
2022-11-12T12:08:51.209Z,4884
2022-11-12T12:09:50.478Z,4856
2022-11-12T12:11:14.388Z,4840
2022-11-12T12:11:50.663Z,4840
2022-11-12T12:12:50.112Z,4872
2022-11-12T12:13:50.084Z,4924
2022-11-12T12:14:50.421Z,4940
2022-11-12T12:15:50.219Z,5012
2022-11-12T12:16:50.006Z,5124
2022-11-12T12:17:49.967Z,5276
2022-11-12T12:18:50.515Z,5560
2022-11-12T12:19:50.257Z,5884
2022-11-12T12:20:50.050Z,6024
2022-11-12T12:21:50.428Z,5920
2022-11-12T12:22:50.163Z,5976
2022-11-12T12:23:50.578Z,6572
2022-11-12T12:24:51.284Z,6600
2022-11-12T12:25:53.962Z,6680
2022-11-12T12:26:50.403Z,6724
2022-11-12T12:27:50.569Z,6652
2022-11-12T12:28:50.168Z,6880
2022-11-12T12:29:50.176Z,7184
2022-11-12T12:30:50.251Z,7380
2022-11-12T12:31:50.242Z,7048
2022-11-12T12:32:50.271Z,6664
2022-11-12T12:33:50.718Z,7044
2022-11-12T12:34:50.499Z,7144
2022-11-12T12:35:50.542Z,7124
2022-11-12T12:36:50.636Z,7744
2022-11-12T12:37:51.394Z,7344
2022-11-12T12:38:50.713Z,8744
2022-11-12T12:39:55.566Z,10328
2022-11-12T12:40:50.816Z,11244
2022-11-12T12:41:50.402Z,13232
2022-11-12T12:42:50.415Z,14944
2022-11-12T12:43:50.394Z,14880
2022-11-12T12:44:50.540Z,14624
2022-11-12T12:45:50.535Z,14208
2022-11-12T12:46:50.998Z,14528
2022-11-12T12:47:50.722Z,14496
2022-11-12T12:48:50.769Z,13600
2022-11-12T12:49:50.574Z,13024
2022-11-12T12:50:50.600Z,13268
2022-11-12T12:51:57.957Z,12948
2022-11-12T12:52:50.537Z,12320
2022-11-12T12:53:50.763Z,12092
2022-11-12T12:54:51.311Z,12060
2022-11-12T12:55:51.382Z,12016
2022-11-12T12:56:51.652Z,12012
2022-11-12T12:57:50.646Z,12292
2022-11-12T12:58:50.749Z,11964
2022-11-12T12:59:51.031Z,10828
2022-11-12T13:00:51.289Z,10332
2022-11-12T13:01:51.133Z,10212
2022-11-12T13:02:51.231Z,10844
2022-11-12T13:03:51.171Z,10960
2022-11-12T13:04:51.844Z,10256
2022-11-12T13:05:50.886Z,10560
2022-11-12T13:06:51.214Z,11352
2022-11-12T13:07:50.869Z,11388
2022-11-12T13:08:50.907Z,10652
2022-11-12T13:09:51.037Z,10052
2022-11-12T13:10:51.236Z,9880
2022-11-12T13:11:52.033Z,9744
2022-11-12T13:12:51.395Z,9344
2022-11-12T13:13:51.141Z,8768
2022-11-12T13:14:51.201Z,8028
2022-11-12T13:15:51.968Z,6988
2022-11-12T13:16:51.223Z,5444
2022-11-12T13:17:51.151Z,4344
2022-11-12T13:18:51.913Z,4016
2022-11-12T13:19:51.258Z,3852
2022-11-12T13:20:51.224Z,3696
2022-11-12T13:21:51.457Z,3592
2022-11-12T13:22:51.748Z,3536
2022-11-12T13:23:51.505Z,3500
2022-11-12T13:24:51.417Z,3472
2022-11-12T13:25:51.414Z,3432
2022-11-12T13:26:51.622Z,3408
2022-11-12T13:27:52.251Z,3380
2022-11-12T13:28:52.122Z,3336
2022-11-12T13:29:51.648Z,3288
2022-11-12T13:30:51.459Z,3252
2022-11-12T13:31:51.837Z,3216
2022-11-12T13:32:51.588Z,3180
2022-11-12T13:33:51.480Z,3132
2022-11-12T13:34:51.705Z,3100
2022-11-12T13:35:51.714Z,3064
2022-11-12T13:36:51.936Z,3028
2022-11-12T13:37:51.486Z,2980
2022-11-12T13:38:51.484Z,2928
2022-11-12T13:39:51.509Z,2892
2022-11-12T13:40:51.536Z,2852
2022-11-12T13:41:51.742Z,2808
2022-11-12T13:42:51.623Z,2784
2022-11-12T13:43:52.416Z,2780
2022-11-12T13:44:59.858Z,2768
2022-11-12T13:45:51.641Z,2760
2022-11-12T13:46:51.657Z,2740
2022-11-12T13:47:51.703Z,2728
2022-11-12T13:48:51.717Z,2712
2022-11-12T13:49:51.675Z,2684
2022-11-12T13:50:51.700Z,2664
2022-11-12T13:51:51.704Z,2648
2022-11-12T13:52:51.941Z,2644
2022-11-12T13:53:52.268Z,2616
2022-11-12T13:54:51.755Z,2600
2022-11-12T13:55:51.835Z,2588
2022-11-12T13:56:52.064Z,2580
2022-11-12T13:57:52.232Z,2568
2022-11-12T13:59:50.644Z,2556
2022-11-12T14:00:39.638Z,2544
2022-11-12T14:01:38.305Z,2504
2022-11-12T14:02:43.979Z,2140
2022-11-12T14:03:38.272Z,1748
2022-11-12T14:04:38.293Z,1808
2022-11-12T14:05:38.751Z,1732
2022-11-12T14:06:38.696Z,2080
2022-11-12T14:07:39.301Z,2072
2022-11-12T14:08:38.541Z,2272
2022-11-12T14:09:38.954Z,2044
2022-11-12T14:10:41.037Z,1980
2022-11-12T14:11:38.437Z,2032
2022-11-12T14:12:38.399Z,2296
2022-11-12T14:13:38.553Z,2276
2022-11-12T14:14:38.544Z,2260
2022-11-12T14:15:38.718Z,2240
2022-11-12T14:16:39.714Z,2208
2022-11-12T14:17:38.727Z,2184
2022-11-12T14:18:38.562Z,2144
2022-11-12T14:19:38.571Z,2108
2022-11-12T14:20:39.029Z,1960
2022-11-12T14:21:39.035Z,1688
2022-11-12T14:22:39.220Z,1692
2022-11-12T14:23:38.973Z,1784
2022-11-12T14:24:38.841Z,1836
2022-11-12T14:25:39.105Z,1612
2022-11-12T14:26:38.871Z,1600
2022-11-12T14:27:39.139Z,1796
2022-11-12T14:28:38.900Z,1824
2022-11-12T14:29:48.152Z,1808
2022-11-12T14:30:39.114Z,1940
2022-11-12T14:31:38.945Z,1712
2022-11-12T14:32:39.923Z,1932
2022-11-12T14:33:39.201Z,1908
2022-11-12T14:34:38.948Z,1688
2022-11-12T14:35:38.980Z,1780
2022-11-12T14:36:39.238Z,1800
2022-11-12T14:37:46.324Z,1764
2022-11-12T14:38:39.077Z,1732
2022-11-12T14:39:39.044Z,1652
2022-11-12T14:40:39.017Z,1636
2022-11-12T14:41:39.056Z,1596
2022-11-12T14:42:39.148Z,1556
2022-11-12T14:43:39.830Z,1516
2022-11-12T14:44:38.847Z,1480
2022-11-12T14:45:42.180Z,1448
2022-11-12T14:46:39.022Z,1412
2022-11-12T14:47:39.888Z,1372
2022-11-12T14:48:40.400Z,1180
2022-11-12T14:49:45.972Z,940
2022-11-12T14:50:52.912Z,1112
2022-11-12T14:51:38.931Z,1212
2022-11-12T14:52:38.996Z,1192
2022-11-12T14:53:39.591Z,1152
2022-11-12T14:54:39.330Z,1112
2022-11-12T14:55:39.517Z,1076
2022-11-12T14:56:42.334Z,1040
2022-11-12T14:57:39.817Z,1004
2022-11-12T14:58:39.516Z,968
2022-11-12T14:59:39.557Z,932
2022-11-12T15:00:40.105Z,896
2022-11-12T15:02:59.832Z,820
2022-11-12T15:03:10.244Z,812
2022-11-12T15:04:10.780Z,776
2022-11-12T15:05:09.870Z,740
2022-11-12T15:06:09.883Z,708
2022-11-12T15:07:09.958Z,672
2022-11-12T15:08:09.709Z,644
2022-11-12T15:09:09.747Z,608
2022-11-12T15:10:10.081Z,576
2022-11-12T15:11:09.973Z,544
2022-11-12T15:12:09.731Z,512
2022-11-12T15:13:09.981Z,484
2022-11-12T15:14:10.046Z,452
2022-11-12T15:15:09.743Z,428
2022-11-12T15:16:10.220Z,400
2022-11-12T15:17:10.202Z,376
2022-11-12T15:18:09.886Z,352
2022-11-12T15:19:09.803Z,328
2022-11-12T15:20:11.048Z,304
2022-11-12T15:21:10.064Z,284
2022-11-12T15:22:09.809Z,260
2022-11-12T15:23:09.813Z,240
2022-11-12T15:24:09.840Z,220
2022-11-12T15:25:10.263Z,200
2022-11-12T15:26:15.445Z,184
2022-11-12T15:27:10.190Z,172
2022-11-12T15:28:10.166Z,152
2022-11-12T15:29:09.908Z,140
2022-11-12T15:30:10.082Z,128
2022-11-12T15:31:10.176Z,116
2022-11-12T15:32:17.666Z,104
2022-11-12T15:33:10.189Z,96
2022-11-12T15:34:10.809Z,84
2022-11-12T15:35:10.833Z,76
2022-11-12T15:36:11.277Z,68
2022-11-12T15:37:10.233Z,60
2022-11-12T15:38:10.385Z,52
2022-11-12T15:39:10.797Z,48
2022-11-12T15:40:10.233Z,40
2022-11-12T15:41:10.767Z,36
2022-11-12T15:42:10.005Z,32
2022-11-12T15:43:10.038Z,28
2022-11-12T15:44:10.089Z,24
2022-11-12T15:45:10.139Z,16
2022-11-12T15:46:10.177Z,16
2022-11-12T15:47:10.162Z,12
2022-11-12T15:48:10.083Z,8
2022-11-12T15:49:10.029Z,8
2022-11-12T15:50:10.693Z,8
2022-11-12T15:51:10.578Z,8
2022-11-12T15:52:11.220Z,8
2022-11-12T15:53:10.457Z,4
2022-11-12T15:54:10.144Z,4
2022-11-12T15:55:10.216Z,4
2022-11-12T15:56:10.240Z,0
2022-11-12T15:57:10.859Z,4
2022-11-12T15:58:10.293Z,4
2022-11-12T15:59:10.193Z,0
2022-11-12T16:00:15.633Z,0
2022-11-12T16:01:11.007Z,0
2022-11-12T16:02:10.251Z,0
2022-11-12T16:03:10.355Z,0
2022-11-12T16:04:10.214Z,0
2022-11-12T16:05:10.556Z,0
2022-11-12T16:06:16.659Z,0
2022-11-12T16:07:10.481Z,0
2022-11-12T16:08:12.007Z,0
2022-11-12T16:09:10.271Z,0
2022-11-12T16:10:10.538Z,0
2022-11-12T16:11:10.560Z,0
2022-11-12T16:12:10.935Z,0
2022-11-12T16:13:10.583Z,0
2022-11-12T16:14:10.308Z,0
2022-11-12T16:15:10.557Z,0
2022-11-12T16:16:10.554Z,0
2022-11-12T16:17:10.311Z,0
2022-11-12T16:18:10.590Z,0
2022-11-12T16:19:10.378Z,0
2022-11-12T16:20:10.467Z,0
2022-11-12T16:21:10.364Z,0
2022-11-12T16:22:16.536Z,0
2022-11-12T16:23:10.488Z,0
2022-11-12T16:24:11.516Z,0
2022-11-12T16:25:11.298Z,0
2022-11-12T16:26:11.605Z,0
2022-11-12T16:27:10.955Z,0
2022-11-12T16:28:10.840Z,0
2022-11-12T16:29:10.926Z,0
2022-11-12T16:30:10.939Z,0
2022-11-12T16:31:11.675Z,0
2022-11-12T16:32:10.679Z,0
2022-11-12T16:33:10.429Z,0
2022-11-12T16:34:11.091Z,0
2022-11-12T16:35:10.591Z,0
2022-11-12T16:36:10.726Z,0
2022-11-12T16:37:10.830Z,0
2022-11-12T16:38:10.752Z,0
2022-11-12T16:39:10.840Z,0
2022-11-12T16:40:11.858Z,0
2022-11-12T16:41:10.868Z,0
2022-11-12T16:42:11.253Z,0
2022-11-12T16:43:11.119Z,0
2022-11-12T16:44:11.221Z,0
2022-11-12T16:45:11.256Z,0
2022-11-12T16:46:10.973Z,0
2022-11-12T16:47:10.620Z,0
2022-11-12T16:48:10.816Z,0
2022-11-12T16:49:10.938Z,0
2022-11-12T16:50:10.959Z,0
2022-11-12T16:51:11.712Z,0
2022-11-12T16:52:10.838Z,0
2022-11-12T16:53:10.959Z,0
2022-11-12T16:54:10.904Z,0
2022-11-12T16:55:12.032Z,0
2022-11-12T16:56:12.131Z,0
2022-11-12T16:57:11.361Z,0
2022-11-12T16:58:10.770Z,0
2022-11-12T16:59:10.711Z,0
2022-11-12T17:00:11.012Z,0
2022-11-12T17:01:10.919Z,0
2022-11-12T17:02:11.072Z,0
2022-11-12T17:03:10.935Z,0
2022-11-12T17:04:10.815Z,0
2022-11-12T17:05:10.967Z,0
2022-11-12T17:06:10.813Z,0
2022-11-12T17:07:11.297Z,0
2022-11-12T17:08:10.829Z,0
2022-11-12T17:09:10.848Z,0
2022-11-12T17:10:10.726Z,0
2022-11-12T17:11:11.409Z,0
2022-11-12T17:12:12.012Z,0
2022-11-12T17:13:11.377Z,0
2022-11-12T17:14:10.941Z,0
2022-11-12T17:15:11.920Z,0
2022-11-12T17:16:11.054Z,0
2022-11-12T17:17:11.029Z,0
2022-11-12T17:18:10.765Z,0
2022-11-12T17:19:11.470Z,0
2022-11-12T17:20:11.695Z,0
2022-11-12T17:21:11.760Z,0
2022-11-12T17:22:10.980Z,0
2022-11-12T17:23:11.772Z,0
2022-11-12T17:24:11.189Z,0
2022-11-12T17:25:13.301Z,0
2022-11-12T17:26:11.861Z,0
2022-11-12T17:27:10.965Z,0
2022-11-12T17:28:12.202Z,0
2022-11-12T17:29:15.035Z,0
2022-11-12T17:30:11.342Z,0
2022-11-12T17:31:11.233Z,0
2022-11-12T17:32:10.884Z,0
2022-11-12T17:33:10.985Z,0
2022-11-12T17:34:11.393Z,0
2022-11-12T17:35:11.625Z,0
2022-11-12T17:36:11.295Z,0
2022-11-12T17:37:11.288Z,0
2022-11-12T17:38:11.031Z,0
2022-11-12T17:39:11.722Z,0
2022-11-12T17:40:11.062Z,0
2022-11-12T17:41:11.286Z,0
2022-11-12T17:42:11.581Z,0
2022-11-12T17:43:11.245Z,0
2022-11-12T17:44:12.181Z,0
2022-11-12T17:45:11.414Z,0
2022-11-12T17:46:11.576Z,0
2022-11-12T17:47:12.068Z,0
2022-11-12T17:48:11.539Z,0
2022-11-12T17:49:11.827Z,0
2022-11-12T17:50:11.421Z,0
2022-11-12T17:51:11.494Z,0
2022-11-12T17:52:11.649Z,0
2022-11-12T17:53:11.361Z,0
2022-11-12T17:54:11.316Z,0
2022-11-12T17:55:11.519Z,0
2022-11-12T17:56:12.790Z,0
2022-11-12T17:57:11.969Z,0
2022-11-12T17:58:12.145Z,0
2022-11-12T17:59:11.641Z,0
2022-11-12T18:00:12.490Z,0
2022-11-12T18:01:11.409Z,0
2022-11-12T18:02:11.085Z,0
2022-11-12T18:03:11.388Z,0
2022-11-12T18:04:11.121Z,0
2022-11-12T18:05:11.096Z,0
2022-11-12T18:06:11.128Z,0
2022-11-12T18:07:11.591Z,0
2022-11-12T18:08:11.465Z,0
2022-11-12T18:09:11.835Z,0
2022-11-12T18:10:14.466Z,0
2022-11-12T18:11:11.418Z,0
2022-11-12T18:12:11.890Z,0
2022-11-12T18:13:11.777Z,0
2022-11-12T18:14:11.688Z,0
2022-11-12T18:15:12.173Z,0
2022-11-12T18:16:18.411Z,0
2022-11-12T18:17:12.432Z,0
2022-11-12T18:18:11.300Z,0
2022-11-12T18:19:11.709Z,0
2022-11-12T18:20:11.620Z,0
2022-11-12T18:21:11.610Z,0
2022-11-12T18:22:11.580Z,0
2022-11-12T18:23:11.376Z,0
2022-11-12T18:24:11.829Z,0
2022-11-12T18:25:11.753Z,0
2022-11-12T18:26:11.362Z,0
2022-11-12T18:27:11.337Z,0
2022-11-12T18:28:11.372Z,0
2022-11-12T18:29:12.040Z,0
2022-11-12T18:30:15.072Z,0
2022-11-12T18:31:11.934Z,0
2022-11-12T18:32:12.468Z,0
2022-11-12T18:33:11.408Z,0
2022-11-12T18:34:11.799Z,0
2022-11-12T18:35:11.361Z,0
2022-11-12T18:36:11.556Z,0
2022-11-12T18:37:11.780Z,0
2022-11-12T18:38:12.282Z,0